createdAt,value
2019-03-15T00:00:28.534Z,31.27
2019-03-15T00:03:01.946Z,34.25
2019-03-15T00:05:42.689Z,46.77
2019-03-15T00:08:17.049Z,46.83
2019-03-15T00:10:51.974Z,37.03
2019-03-15T00:13:25.238Z,35.53
2019-03-15T00:15:58.419Z,40.40
2019-03-15T00:18:31.847Z,36.37
2019-03-15T00:21:05.998Z,51.47
2019-03-15T00:23:39.407Z,41.47
2019-03-15T00:26:12.798Z,47.53
2019-03-15T00:28:47.221Z,46.54
2019-03-15T00:31:21.999Z,54.53
2019-03-15T00:33:56.722Z,64.27
2019-03-15T00:36:30.244Z,49.23
2019-03-15T00:39:03.545Z,48.00
2019-03-15T00:41:36.915Z,55.30
2019-03-15T00:44:11.712Z,51.80
2019-03-15T00:46:45.336Z,49.40
2019-03-15T00:49:18.590Z,56.73
2019-03-15T00:51:51.977Z,48.60
2019-03-15T00:54:25.402Z,54.33
2019-03-15T00:56:58.785Z,63.10
2019-03-15T00:59:34.153Z,40.60
2019-03-15T01:02:07.518Z,42.20
2019-03-15T01:04:40.960Z,34.80
2019-03-15T01:07:14.239Z,36.53
2019-03-15T01:09:47.559Z,37.35
2019-03-15T01:12:21.160Z,40.40
2019-03-15T01:14:55.920Z,43.73
2019-03-15T01:17:29.304Z,37.40
2019-03-15T01:20:03.121Z,30.90
2019-03-15T01:22:36.407Z,29.13
2019-03-15T01:25:10.569Z,32.37
2019-03-15T01:27:45.777Z,41.10
2019-03-15T01:30:19.562Z,35.17
2019-03-15T01:32:52.873Z,38.70
2019-03-15T01:35:26.139Z,44.70
2019-03-15T01:37:59.463Z,48.33
2019-03-15T01:40:32.658Z,38.63
2019-03-15T01:43:06.198Z,29.70
2019-03-15T01:45:39.486Z,42.17
2019-03-15T01:48:13.403Z,43.30
2019-03-15T01:50:47.778Z,34.06
2019-03-15T01:53:23.467Z,34.43
2019-03-15T01:55:57.163Z,26.53
2019-03-15T01:58:30.389Z,30.63
2019-03-15T02:01:04.545Z,19.67
2019-03-15T02:03:38.309Z,36.57
2019-03-15T02:06:11.714Z,22.50
2019-03-15T02:08:44.985Z,24.80
2019-03-15T02:11:19.834Z,17.43
2019-03-15T02:13:53.075Z,19.83
2019-03-15T02:16:27.293Z,22.40
2019-03-15T02:19:00.608Z,18.67
2019-03-15T02:21:33.866Z,11.97
2019-03-15T02:24:07.090Z,14.57
2019-03-15T02:26:40.440Z,17.80
2019-03-15T02:29:14.742Z,19.70
2019-03-15T02:31:48.120Z,13.63
2019-03-15T02:34:21.482Z,18.33
2019-03-15T02:36:56.577Z,13.00
2019-03-15T02:39:29.832Z,19.93
2019-03-15T02:42:03.125Z,14.37
2019-03-15T02:44:36.553Z,15.53
2019-03-15T02:47:09.871Z,23.27
2019-03-15T02:49:43.299Z,15.07
2019-03-15T02:52:16.534Z,21.03
2019-03-15T02:54:49.825Z,12.53
2019-03-15T02:57:23.029Z,14.94
2019-03-15T02:59:56.337Z,17.07
2019-03-15T03:02:29.809Z,12.83
2019-03-15T03:05:02.958Z,16.60
2019-03-15T03:07:36.543Z,14.97
2019-03-15T03:10:24.202Z,16.17
2019-03-15T03:13:01.367Z,11.27
2019-03-15T03:15:34.581Z,16.10
2019-03-15T03:18:07.802Z,17.17
2019-03-15T03:20:42.818Z,17.03
2019-03-15T03:23:16.138Z,12.50
2019-03-15T03:25:49.493Z,14.30
2019-03-15T03:28:22.805Z,17.00
2019-03-15T03:30:56.152Z,16.33
2019-03-15T03:33:30.890Z,17.30
2019-03-15T03:36:04.245Z,17.40
2019-03-15T03:38:39.097Z,15.67
2019-03-15T03:41:12.343Z,16.23
2019-03-15T03:43:45.924Z,10.37
2019-03-15T03:46:19.275Z,10.23
2019-03-15T03:48:53.989Z,10.57
2019-03-15T03:51:27.375Z,9.53
2019-03-15T03:54:00.694Z,14.07
2019-03-15T03:56:43.855Z,14.97
2019-03-15T03:59:21.521Z,13.30
2019-03-15T04:01:57.196Z,11.20
2019-03-15T04:04:29.286Z,11.03
2019-03-15T04:07:02.744Z,17.93
2019-03-15T04:09:36.264Z,12.00
2019-03-15T04:12:10.939Z,13.38
2019-03-15T04:14:47.117Z,12.53
2019-03-15T04:17:22.086Z,14.93
2019-03-15T04:19:58.416Z,16.50
2019-03-15T04:22:35.608Z,16.00
2019-03-15T04:25:12.075Z,14.83
2019-03-15T04:27:47.153Z,19.60
2019-03-15T04:30:23.910Z,14.30
2019-03-15T04:32:59.409Z,14.87
2019-03-15T04:35:34.596Z,15.20
2019-03-15T04:38:11.115Z,20.83
2019-03-15T04:40:45.063Z,31.80
2019-03-15T04:43:19.328Z,14.47
2019-03-15T04:45:52.685Z,18.07
2019-03-15T04:48:26.270Z,12.03
2019-03-15T04:50:59.705Z,13.08
2019-03-15T04:53:33.101Z,14.50
2019-03-15T04:56:06.388Z,8.07
2019-03-15T04:58:39.897Z,11.97
2019-03-15T05:01:13.293Z,12.03
2019-03-15T05:03:46.907Z,11.35
2019-03-15T05:06:20.140Z,12.47
2019-03-15T05:08:53.477Z,14.27
2019-03-15T05:11:26.964Z,8.10
2019-03-15T05:14:01.675Z,8.23
2019-03-15T05:16:35.176Z,8.63
2019-03-15T05:19:08.449Z,11.23
2019-03-15T05:21:41.680Z,9.93
2019-03-15T05:24:15.295Z,15.20
2019-03-15T05:26:50.009Z,10.10
2019-03-15T05:29:23.226Z,10.03
2019-03-15T05:31:56.514Z,8.45
2019-03-15T05:34:29.677Z,9.70
2019-03-15T05:37:03.458Z,8.77
2019-03-15T05:39:36.686Z,14.83
2019-03-15T05:42:12.488Z,9.17
2019-03-15T05:44:44.896Z,15.80
2019-03-15T05:47:18.902Z,9.47
2019-03-15T05:49:52.236Z,14.47
2019-03-15T05:52:25.565Z,9.33
2019-03-15T05:54:59.018Z,14.40
2019-03-15T05:57:32.410Z,12.13
2019-03-15T06:00:06.685Z,12.93
2019-03-15T06:02:39.999Z,12.83
2019-03-15T06:05:13.598Z,11.67
2019-03-15T06:07:47.051Z,14.77
2019-03-15T06:10:22.505Z,11.90
2019-03-15T06:12:55.110Z,13.03
2019-03-15T06:15:28.623Z,15.40
2019-03-15T06:18:06.696Z,11.03
2019-03-15T06:20:39.246Z,10.43
2019-03-15T06:23:12.569Z,13.40
2019-03-15T06:25:51.796Z,14.27
2019-03-15T06:28:24.179Z,13.00
2019-03-15T06:30:57.522Z,11.53
2019-03-15T06:33:32.147Z,18.35
2019-03-15T06:36:05.615Z,13.00
2019-03-15T06:38:38.989Z,18.85
2019-03-15T06:41:23.684Z,8.40
2019-03-15T06:43:47.809Z,9.10
2019-03-15T06:46:21.519Z,13.23
2019-03-15T06:48:55.159Z,16.50
2019-03-15T06:51:29.837Z,12.90
2019-03-15T06:54:11.492Z,10.67
2019-03-15T06:56:38.447Z,10.97
2019-03-15T06:59:11.947Z,11.28
2019-03-15T07:01:45.188Z,19.27
2019-03-15T07:04:18.599Z,13.83
2019-03-15T07:06:52.271Z,14.47
2019-03-15T07:09:25.847Z,10.05
2019-03-15T07:12:09.380Z,13.33
2019-03-15T07:14:36.265Z,10.78
2019-03-15T07:17:09.516Z,13.53
2019-03-15T07:19:42.990Z,16.57
2019-03-15T07:22:19.943Z,13.43
2019-03-15T07:24:53.388Z,13.43
2019-03-15T07:27:26.757Z,23.00
2019-03-15T07:30:00.575Z,8.08
2019-03-15T07:32:35.308Z,20.83
2019-03-15T07:35:09.465Z,12.97
2019-03-15T07:37:45.387Z,13.17
2019-03-15T07:40:19.121Z,13.40
2019-03-15T07:42:52.635Z,15.83
2019-03-15T07:45:26.286Z,15.10
2019-03-15T07:48:00.958Z,11.80
2019-03-15T07:50:34.437Z,13.17
2019-03-15T07:53:07.997Z,10.17
2019-03-15T07:55:41.805Z,19.07
2019-03-15T07:58:15.060Z,12.93
2019-03-15T08:00:48.552Z,14.97
2019-03-15T08:03:21.884Z,16.03
2019-03-15T08:05:56.230Z,11.88
2019-03-15T08:08:29.515Z,12.20
2019-03-15T08:11:02.805Z,13.87
2019-03-15T08:13:36.228Z,12.97
2019-03-15T08:16:09.607Z,10.32
2019-03-15T08:18:43.010Z,13.10
2019-03-15T08:21:16.413Z,13.90
2019-03-15T08:23:49.792Z,10.10
2019-03-15T08:26:23.122Z,10.27
2019-03-15T08:28:57.000Z,12.80
2019-03-15T08:31:30.252Z,13.53
2019-03-15T08:34:05.275Z,16.87
2019-03-15T08:36:40.046Z,16.87
2019-03-15T08:39:13.598Z,15.37
2019-03-15T08:41:47.056Z,12.13
2019-03-15T08:44:20.419Z,13.17
2019-03-15T08:46:57.148Z,11.27
2019-03-15T08:49:32.115Z,13.27
2019-03-15T08:52:09.553Z,12.07
2019-03-15T08:54:46.406Z,15.67
2019-03-15T08:57:17.867Z,9.70
2019-03-15T08:59:56.830Z,14.73
2019-03-15T09:02:26.952Z,12.43
2019-03-15T09:05:01.544Z,11.93
2019-03-15T09:07:35.157Z,16.67
2019-03-15T09:10:24.035Z,16.90
2019-03-15T09:12:54.411Z,11.30
2019-03-15T09:15:27.677Z,18.20
2019-03-15T09:18:02.401Z,17.47
2019-03-15T09:20:38.695Z,12.00
2019-03-15T09:23:12.144Z,13.33
2019-03-15T09:25:45.811Z,10.47
2019-03-15T09:28:19.070Z,13.60
2019-03-15T09:30:54.094Z,10.60
2019-03-15T09:33:27.732Z,14.57
2019-03-15T09:36:01.310Z,11.57
2019-03-15T09:38:36.360Z,13.97
2019-03-15T09:41:09.744Z,20.60
2019-03-15T09:43:45.448Z,15.17
2019-03-15T09:46:18.671Z,14.37
2019-03-15T09:48:53.042Z,12.40
2019-03-15T09:51:26.568Z,10.77
2019-03-15T09:53:59.987Z,14.83
2019-03-15T09:56:33.813Z,15.73
2019-03-15T09:59:09.377Z,19.07
2019-03-15T10:01:43.211Z,15.27
2019-03-15T10:04:17.420Z,23.42
2019-03-15T10:06:51.648Z,27.27
2019-03-15T10:09:27.956Z,22.52
2019-03-15T10:12:02.163Z,21.97
2019-03-15T10:14:36.707Z,21.53
2019-03-15T10:17:11.224Z,22.50
2019-03-15T10:19:46.034Z,27.50
2019-03-15T10:22:20.837Z,24.97
2019-03-15T10:24:55.996Z,29.57
2019-03-15T10:27:33.197Z,35.13
2019-03-15T10:30:14.851Z,29.37
2019-03-15T10:32:50.984Z,28.07
2019-03-15T10:35:26.960Z,29.80
2019-03-15T10:38:01.962Z,29.97
2019-03-15T10:40:40.152Z,22.73
2019-03-15T10:43:15.190Z,48.97
2019-03-15T10:45:51.955Z,32.03
2019-03-15T10:48:28.841Z,27.00
2019-03-15T10:51:03.990Z,28.20
2019-03-15T10:53:38.519Z,28.93
2019-03-15T10:56:14.233Z,35.00
2019-03-15T10:58:51.579Z,28.17
2019-03-15T11:01:26.219Z,35.53
2019-03-15T11:04:00.953Z,34.00
2019-03-15T11:06:39.001Z,28.67
2019-03-15T11:09:16.079Z,34.57
2019-03-15T11:11:55.043Z,34.20
2019-03-15T11:14:29.188Z,31.63
2019-03-15T11:17:03.066Z,36.63
2019-03-15T11:19:37.109Z,33.70
2019-03-15T11:22:13.269Z,34.73
2019-03-15T11:24:47.210Z,31.37
2019-03-15T11:27:21.637Z,30.07
2019-03-15T11:29:57.592Z,32.57
2019-03-15T11:32:33.243Z,34.43
2019-03-15T11:35:13.032Z,37.10
2019-03-15T11:37:47.108Z,33.23
2019-03-15T11:40:21.213Z,31.10
2019-03-15T11:42:55.213Z,30.90
2019-03-15T11:45:29.439Z,35.30
2019-03-15T11:48:04.469Z,37.13
2019-03-15T11:50:41.307Z,42.70
2019-03-15T11:53:18.716Z,38.57
2019-03-15T11:55:51.378Z,34.20
2019-03-15T11:58:27.774Z,32.10
2019-03-15T12:01:02.270Z,37.60
2019-03-15T12:03:36.566Z,40.03
2019-03-15T12:06:10.935Z,38.17
2019-03-15T12:08:46.943Z,46.17
2019-03-15T12:11:23.228Z,35.33
2019-03-15T12:13:57.756Z,41.60
2019-03-15T12:16:32.274Z,50.27
2019-03-15T12:19:06.771Z,45.93
2019-03-15T12:21:42.974Z,47.80
2019-03-15T12:24:17.386Z,51.47
2019-03-15T12:26:53.927Z,47.03
2019-03-15T12:29:28.645Z,44.67
2019-03-15T12:32:03.509Z,53.70
2019-03-15T12:34:40.145Z,52.90
2019-03-15T12:37:15.605Z,51.67
2019-03-15T12:39:50.620Z,58.23
2019-03-15T12:42:27.595Z,54.83
2019-03-15T12:45:03.766Z,52.33
2019-03-15T12:47:39.399Z,55.30
2019-03-15T12:50:18.058Z,52.10
2019-03-15T12:52:52.825Z,48.13
2019-03-15T12:55:29.354Z,64.53
2019-03-15T12:58:03.346Z,62.30
2019-03-15T13:00:37.427Z,59.70
2019-03-15T13:03:12.041Z,69.00
2019-03-15T13:05:46.526Z,64.70
2019-03-15T13:08:20.937Z,90.07
2019-03-15T13:10:55.035Z,65.13
2019-03-15T13:13:29.787Z,71.72
2019-03-15T13:16:05.841Z,79.77
2019-03-15T13:18:42.611Z,81.53
2019-03-15T13:21:20.802Z,75.20
2019-03-15T13:23:55.564Z,76.77
2019-03-15T13:26:30.367Z,79.77
2019-03-15T13:29:05.241Z,82.53
2019-03-15T13:31:39.753Z,69.93
2019-03-15T13:34:14.432Z,69.33
2019-03-15T13:36:53.988Z,63.17
2019-03-15T13:39:28.627Z,69.53
2019-03-15T13:42:02.525Z,52.57
2019-03-15T13:44:38.397Z,57.77
2019-03-15T13:47:14.678Z,84.07
2019-03-15T13:49:52.853Z,67.77
2019-03-15T13:52:27.487Z,61.07
2019-03-15T13:55:01.825Z,65.50
2019-03-15T13:57:36.196Z,66.50
2019-03-15T14:00:16.132Z,61.97
2019-03-15T14:02:50.640Z,74.80
2019-03-15T14:05:24.511Z,87.20
2019-03-15T14:08:11.217Z,67.67
2019-03-15T14:10:49.291Z,63.43
2019-03-15T14:13:15.519Z,68.30
2019-03-15T14:15:51.744Z,74.70
2019-03-15T14:18:26.651Z,67.77
2019-03-15T14:21:03.559Z,60.33
2019-03-15T14:23:38.367Z,72.83
2019-03-15T14:26:12.550Z,62.87
2019-03-15T14:28:47.026Z,68.93
2019-03-15T14:31:21.844Z,62.00
2019-03-15T14:33:56.345Z,64.03
2019-03-15T14:36:31.883Z,77.80
2019-03-15T14:39:06.769Z,70.17
2019-03-15T14:41:41.116Z,71.23
2019-03-15T14:44:18.076Z,73.93
2019-03-15T14:46:50.324Z,69.53
2019-03-15T14:49:24.748Z,68.50
2019-03-15T14:51:59.832Z,70.03
2019-03-15T14:54:34.381Z,77.73
2019-03-15T14:57:10.440Z,71.73
2019-03-15T14:59:44.879Z,66.20
2019-03-15T15:02:18.916Z,67.23
2019-03-15T15:04:53.363Z,69.07
2019-03-15T15:07:27.791Z,66.10
2019-03-15T15:10:03.421Z,73.10
2019-03-15T15:12:37.678Z,70.60
2019-03-15T15:15:13.974Z,76.03
2019-03-15T15:17:48.096Z,80.00
2019-03-15T15:20:23.012Z,82.70
2019-03-15T15:22:56.826Z,80.50
2019-03-15T15:25:33.706Z,77.32
2019-03-15T15:28:07.767Z,89.87
2019-03-15T15:30:41.982Z,89.73
2019-03-15T15:33:16.192Z,101.46
2019-03-15T15:35:51.084Z,89.90
2019-03-15T15:38:24.716Z,99.37
2019-03-15T15:40:59.083Z,96.97
2019-03-15T15:43:33.235Z,112.73
2019-03-15T15:46:07.420Z,106.95
2019-03-15T15:48:41.534Z,93.43
2019-03-15T15:51:16.555Z,107.70
2019-03-15T15:53:50.245Z,101.83
2019-03-15T15:56:25.080Z,92.87
2019-03-15T15:59:02.903Z,88.03
2019-03-15T16:01:37.124Z,103.00
2019-03-15T16:04:11.068Z,113.00
2019-03-15T16:06:44.802Z,95.00
2019-03-15T16:09:18.393Z,95.97
2019-03-15T16:11:53.803Z,93.47
2019-03-15T16:14:27.492Z,86.20
2019-03-15T16:17:01.394Z,82.03
2019-03-15T16:19:35.209Z,87.77
2019-03-15T16:22:09.269Z,92.43
2019-03-15T16:24:43.270Z,84.63
2019-03-15T16:27:17.413Z,93.90
2019-03-15T16:29:51.571Z,109.73
2019-03-15T16:32:27.342Z,98.27
2019-03-15T16:35:01.104Z,87.67
2019-03-15T16:37:35.296Z,92.57
2019-03-15T16:40:11.580Z,92.27
2019-03-15T16:42:46.132Z,101.53
2019-03-15T16:45:30.446Z,95.40
2019-03-15T16:48:04.812Z,99.37
2019-03-15T16:50:38.903Z,89.55
2019-03-15T16:53:14.313Z,94.10
2019-03-15T16:55:50.712Z,96.43
2019-03-15T16:58:24.792Z,89.80
2019-03-15T17:00:58.668Z,91.93
2019-03-15T17:03:31.958Z,93.33
2019-03-15T17:06:05.247Z,90.57
2019-03-15T17:08:40.504Z,91.83
2019-03-15T17:11:14.234Z,87.23
2019-03-15T17:13:47.907Z,90.07
2019-03-15T17:16:21.564Z,73.77
2019-03-15T17:18:55.709Z,89.10
2019-03-15T17:21:29.117Z,82.83
2019-03-15T17:24:06.097Z,93.26
2019-03-15T17:26:40.125Z,89.60
2019-03-15T17:29:13.523Z,98.37
2019-03-15T17:31:47.259Z,90.53
2019-03-15T17:34:20.646Z,98.52
2019-03-15T17:37:06.161Z,99.77
2019-03-15T17:39:29.573Z,99.10
2019-03-15T17:42:03.894Z,107.12
2019-03-15T17:44:37.685Z,97.37
2019-03-15T17:47:12.437Z,103.97
2019-03-15T17:49:46.151Z,97.37
2019-03-15T17:52:20.267Z,86.20
2019-03-15T17:54:53.934Z,108.03
2019-03-15T17:57:27.560Z,96.13
2019-03-15T18:00:21.564Z,103.33
2019-03-15T18:02:55.722Z,102.83
2019-03-15T18:05:29.545Z,110.40
2019-03-15T18:08:05.721Z,108.52
2019-03-15T18:10:39.681Z,100.83
2019-03-15T18:13:13.736Z,102.07
2019-03-15T18:15:51.120Z,98.87
2019-03-15T18:18:30.555Z,111.87
2019-03-15T18:21:10.565Z,113.97
2019-03-15T18:23:46.486Z,98.40
2019-03-15T18:26:20.210Z,92.13
2019-03-15T18:28:53.894Z,95.03
2019-03-15T18:31:27.494Z,116.23
2019-03-15T18:34:03.050Z,90.60
2019-03-15T18:36:36.846Z,102.80
2019-03-15T18:39:10.932Z,95.77
2019-03-15T18:41:45.735Z,88.83
2019-03-15T18:44:19.701Z,96.63
2019-03-15T18:46:55.397Z,103.72
2019-03-15T18:49:31.150Z,88.83
2019-03-15T18:52:04.933Z,95.93
2019-03-15T18:54:38.618Z,89.28
2019-03-15T18:57:12.503Z,98.63
2019-03-15T18:59:47.491Z,98.77
2019-03-15T19:02:21.376Z,95.33
2019-03-15T19:04:55.194Z,96.53
2019-03-15T19:07:29.197Z,90.80
2019-03-15T19:10:03.006Z,100.23
2019-03-15T19:12:40.076Z,92.27
2019-03-15T19:15:22.267Z,93.30
2019-03-15T19:17:56.162Z,102.53
2019-03-15T19:20:30.075Z,90.60
2019-03-15T19:23:04.872Z,104.85
2019-03-15T19:25:40.416Z,82.05
2019-03-15T19:28:14.290Z,79.47
2019-03-15T19:30:48.118Z,90.40
2019-03-15T19:33:21.349Z,92.87
2019-03-15T19:35:54.714Z,95.17
2019-03-15T19:38:28.006Z,85.97
2019-03-15T19:41:02.223Z,87.67
2019-03-15T19:43:35.675Z,84.17
2019-03-15T19:46:09.195Z,84.32
2019-03-15T19:48:42.457Z,83.63
2019-03-15T19:51:15.683Z,83.07
2019-03-15T19:53:49.154Z,79.70
2019-03-15T19:56:23.766Z,84.20
2019-03-15T19:58:57.644Z,91.77
2019-03-15T20:01:30.985Z,98.63
2019-03-15T20:04:05.985Z,87.12
2019-03-15T20:06:39.425Z,86.57
2019-03-15T20:09:12.790Z,88.70
2019-03-15T20:11:46.082Z,73.73
2019-03-15T20:14:19.386Z,88.57
2019-03-15T20:16:52.787Z,78.70
2019-03-15T20:19:26.032Z,91.47
2019-03-15T20:22:00.611Z,85.13
2019-03-15T20:24:36.842Z,91.08
2019-03-15T20:27:11.417Z,75.90
2019-03-15T20:29:45.982Z,80.60
2019-03-15T20:32:19.270Z,80.97
2019-03-15T20:34:52.734Z,78.27
2019-03-15T20:37:26.088Z,71.87
2019-03-15T20:39:59.303Z,74.40
2019-03-15T20:42:35.545Z,90.23
2019-03-15T20:45:19.924Z,71.47
2019-03-15T20:47:53.325Z,70.03
2019-03-15T20:50:26.537Z,68.47
2019-03-15T20:53:08.092Z,77.67
2019-03-15T20:55:35.141Z,79.62
2019-03-15T20:58:08.529Z,86.50
2019-03-15T21:00:41.848Z,77.10
2019-03-15T21:03:15.176Z,83.25
2019-03-15T21:05:48.413Z,81.77
2019-03-15T21:08:21.704Z,69.93
2019-03-15T21:10:55.018Z,72.72
2019-03-15T21:13:28.235Z,69.70
2019-03-15T21:16:01.633Z,65.30
2019-03-15T21:18:35.372Z,61.60
2019-03-15T21:21:08.652Z,65.47
2019-03-15T21:23:42.005Z,72.03
2019-03-15T21:26:15.204Z,61.57
2019-03-15T21:28:49.750Z,60.17
2019-03-15T21:31:22.956Z,72.27
2019-03-15T21:33:57.756Z,64.43
2019-03-15T21:36:31.039Z,68.60
2019-03-15T21:39:05.823Z,64.62
2019-03-15T21:41:40.720Z,60.57
2019-03-15T21:44:17.198Z,74.83
2019-03-15T21:46:48.704Z,60.00
2019-03-15T21:49:23.271Z,71.65
2019-03-15T21:51:58.198Z,63.17
2019-03-15T21:54:31.596Z,60.80
2019-03-15T21:57:05.444Z,63.85
2019-03-15T21:59:40.520Z,60.33
2019-03-15T22:02:16.486Z,56.40
2019-03-15T22:04:49.905Z,68.73
2019-03-15T22:07:23.145Z,65.97
2019-03-15T22:09:56.436Z,58.50
2019-03-15T22:12:29.879Z,62.23
2019-03-15T22:15:03.205Z,67.37
2019-03-15T22:17:36.663Z,72.60
2019-03-15T22:20:20.947Z,70.05
2019-03-15T22:22:54.230Z,65.07
2019-03-15T22:25:27.487Z,63.87
2019-03-15T22:28:02.449Z,68.87
2019-03-15T22:30:35.876Z,79.50
2019-03-15T22:33:09.287Z,64.73
2019-03-15T22:35:42.680Z,66.10
2019-03-15T22:38:25.622Z,60.93
2019-03-15T22:40:50.674Z,63.27
2019-03-15T22:43:23.980Z,59.40
2019-03-15T22:45:57.406Z,60.77
2019-03-15T22:48:30.824Z,60.30
2019-03-15T22:51:04.059Z,60.47
2019-03-15T22:53:37.390Z,72.17
2019-03-15T22:56:10.806Z,56.17
2019-03-15T22:58:45.862Z,57.40
2019-03-15T23:01:29.671Z,61.23
2019-03-15T23:03:53.717Z,61.30
2019-03-15T23:06:27.190Z,65.70
2019-03-15T23:09:00.684Z,63.10
2019-03-15T23:11:35.145Z,59.27
2019-03-15T23:14:08.696Z,65.80
2019-03-15T23:16:42.396Z,77.43
2019-03-15T23:19:16.006Z,54.10
2019-03-15T23:21:51.740Z,62.05
2019-03-15T23:24:24.101Z,59.27
2019-03-15T23:26:57.764Z,61.63
2019-03-15T23:29:31.168Z,56.50
2019-03-15T23:32:04.384Z,58.63
2019-03-15T23:34:40.992Z,65.30
2019-03-15T23:37:14.417Z,59.13
2019-03-15T23:39:47.756Z,63.40
2019-03-15T23:42:21.373Z,73.40
2019-03-15T23:44:59.645Z,67.62
2019-03-15T23:47:33.087Z,64.12
2019-03-15T23:50:11.689Z,64.27
2019-03-15T23:52:48.203Z,64.37
2019-03-15T23:55:22.784Z,55.63
2019-03-15T23:57:56.097Z,70.37
